createdAt,value
2024-05-09T00:03:24.749Z,101852.00
2024-05-09T00:13:24.674Z,101848.00
2024-05-09T00:23:23.736Z,101846.00
2024-05-09T00:33:23.933Z,101843.00
2024-05-09T00:43:23.702Z,101839.00
2024-05-09T00:53:22.786Z,101841.00
2024-05-09T01:03:23.131Z,101841.00
2024-05-09T01:13:22.725Z,101841.00
2024-05-09T01:23:21.790Z,101835.00
2024-05-09T01:33:20.927Z,101837.00
2024-05-09T01:43:20.821Z,101833.00
2024-05-09T01:53:19.815Z,101816.00
2024-05-09T02:03:19.020Z,101812.00
2024-05-09T02:13:18.858Z,101808.00
2024-05-09T02:23:18.978Z,101806.00
2024-05-09T02:33:19.131Z,101806.00
2024-05-09T02:43:18.870Z,101804.00
2024-05-09T02:53:18.051Z,101806.00
2024-05-09T03:03:18.114Z,101806.00
2024-05-09T03:13:17.908Z,101806.00
2024-05-09T03:23:16.964Z,101808.00
2024-05-09T03:33:18.688Z,101810.00
2024-05-09T03:43:17.974Z,101808.00
2024-05-09T03:53:17.095Z,101810.00
2024-05-09T04:03:17.235Z,101808.00
2024-05-09T04:13:17.173Z,101806.00
2024-05-09T04:23:17.044Z,101806.00
2024-05-09T04:33:16.191Z,101810.00
2024-05-09T04:43:16.827Z,101814.00
2024-05-09T04:53:16.110Z,101820.00
2024-05-09T05:03:16.901Z,101820.00
2024-05-09T05:13:18.520Z,101831.00
2024-05-09T05:23:18.124Z,101845.00
2024-05-09T05:33:19.012Z,101846.00
2024-05-09T05:43:19.097Z,101850.00
2024-05-09T05:53:18.236Z,101858.00
2024-05-09T06:03:18.153Z,101870.00
2024-05-09T06:13:18.145Z,101872.00
2024-05-09T06:23:17.209Z,101870.00
2024-05-09T06:33:17.442Z,101870.00
2024-05-09T06:43:19.107Z,101868.00
2024-05-09T06:53:18.228Z,101878.00
2024-05-09T07:03:18.793Z,101880.00
2024-05-09T07:13:18.230Z,101888.00
2024-05-09T07:23:17.317Z,101886.00
2024-05-09T07:33:17.567Z,101878.00
2024-05-09T07:43:17.312Z,101874.00
2024-05-09T07:53:37.877Z,101870.00
2024-05-09T08:03:17.437Z,101864.00
2024-05-09T08:13:17.434Z,101854.00
2024-05-09T08:23:17.362Z,101850.00
2024-05-09T08:33:16.547Z,101845.00
2024-05-09T08:43:16.564Z,101837.00
2024-05-09T08:53:16.414Z,101820.00
2024-05-09T09:03:15.584Z,101812.00
2024-05-09T09:13:15.794Z,101806.00
2024-05-09T09:23:15.568Z,101804.00
2024-05-09T09:33:16.044Z,101797.00
2024-05-09T09:43:15.840Z,101791.00
2024-05-09T09:53:15.500Z,101777.00
2024-05-09T10:03:14.603Z,101771.00
2024-05-09T10:13:14.689Z,101763.00
2024-05-09T10:23:14.566Z,101750.00
2024-05-09T10:33:13.613Z,101738.00
2024-05-09T10:43:13.599Z,101728.00
2024-05-09T10:53:13.594Z,101720.00
2024-05-09T11:03:12.679Z,101714.00
2024-05-09T11:13:12.669Z,101710.00
2024-05-09T11:23:12.631Z,101701.00
2024-05-09T11:33:11.760Z,101693.00
2024-05-09T11:43:11.711Z,101681.00
2024-05-09T11:53:11.698Z,101673.00
2024-05-09T12:03:10.711Z,101661.00
2024-05-09T12:13:10.009Z,101648.00
2024-05-09T12:23:10.630Z,101640.00
2024-05-09T12:33:12.117Z,101630.00
2024-05-09T12:43:12.221Z,101624.00
2024-05-09T12:53:11.796Z,101618.00
2024-05-09T13:03:10.932Z,101611.00
2024-05-09T13:13:11.069Z,101605.00
2024-05-09T13:23:10.853Z,101597.00
2024-05-09T13:33:11.277Z,101591.00
2024-05-09T13:43:10.886Z,101583.00
2024-05-09T13:53:10.871Z,101573.00
2024-05-09T14:03:10.275Z,101555.00
2024-05-09T14:13:10.114Z,101549.00
2024-05-09T14:23:09.991Z,101539.00
2024-05-09T14:33:10.264Z,101527.00
2024-05-09T14:43:10.260Z,101518.00
2024-05-09T14:53:10.389Z,101510.00
2024-05-09T15:03:10.026Z,101502.00
2024-05-09T15:13:12.290Z,101492.00
2024-05-09T15:23:11.009Z,101486.00
2024-05-09T15:33:10.116Z,101480.00
2024-05-09T15:43:11.375Z,101474.00
2024-05-09T15:53:12.077Z,101465.00
2024-05-09T16:03:13.448Z,101461.00
2024-05-09T16:13:13.399Z,101459.00
2024-05-09T16:23:13.104Z,101459.00
2024-05-09T16:33:12.516Z,101455.00
2024-05-09T16:43:12.867Z,101453.00
2024-05-09T16:53:13.109Z,101445.00
2024-05-09T17:03:13.194Z,101443.00
2024-05-09T17:13:13.234Z,101441.00
2024-05-09T17:23:14.214Z,101445.00
2024-05-09T17:33:14.343Z,101443.00
2024-05-09T17:43:14.326Z,101439.00
2024-05-09T17:53:14.219Z,101433.00
2024-05-09T18:03:14.165Z,101435.00
2024-05-09T18:13:14.867Z,101435.00
2024-05-09T18:23:14.878Z,101437.00
2024-05-09T18:33:15.054Z,101437.00
2024-05-09T18:43:14.952Z,101445.00
2024-05-09T18:53:14.917Z,101447.00
2024-05-09T19:03:14.872Z,101451.00
2024-05-09T19:13:15.416Z,101461.00
2024-05-09T19:23:14.943Z,101467.00
2024-05-09T19:33:14.605Z,101472.00
2024-05-09T19:43:15.078Z,101476.00
2024-05-09T19:53:15.089Z,101478.00
2024-05-09T20:03:16.004Z,101482.00
2024-05-09T20:13:16.042Z,101488.00
2024-05-09T20:23:16.011Z,101492.00
2024-05-09T20:33:15.089Z,101498.00
2024-05-09T20:43:39.808Z,101492.00
2024-05-09T20:53:38.813Z,101498.00
2024-05-09T21:03:38.028Z,101496.00
2024-05-09T21:13:37.831Z,101502.00
2024-05-09T21:23:36.875Z,101504.00
2024-05-09T21:33:36.135Z,101502.00
2024-05-09T21:43:35.936Z,101502.00
2024-05-09T21:53:36.591Z,101498.00
2024-05-09T22:03:36.142Z,101492.00
2024-05-09T22:13:35.925Z,101484.00
2024-05-09T22:23:34.934Z,101484.00
2024-05-09T22:33:34.279Z,101490.00
2024-05-09T22:43:33.972Z,101490.00
2024-05-09T22:53:32.997Z,101496.00
2024-05-09T23:03:32.253Z,101494.00
2024-05-09T23:13:32.015Z,101490.00
2024-05-09T23:23:31.027Z,101484.00
2024-05-09T23:33:30.067Z,101480.00
2024-05-09T23:43:30.095Z,101471.00
2024-05-09T23:53:29.058Z,101465.00
